sensor_id;sensor_type;location;lat;lon;timestamp;P1;durP1;ratioP1;P2;durP2;ratioP2
31910;SDS011;18457;52.432;16.914;2023-07-31T00:01:56;4.00;;;3.10;;
31910;SDS011;18457;52.432;16.914;2023-07-31T00:04:28;6.90;;;3.40;;
31910;SDS011;18457;52.432;16.914;2023-07-31T00:07:00;4.10;;;3.10;;
31910;SDS011;18457;52.432;16.914;2023-07-31T00:09:33;7.30;;;3.30;;
31910;SDS011;18457;52.432;16.914;2023-07-31T00:12:06;5.10;;;3.60;;
31910;SDS011;18457;52.432;16.914;2023-07-31T00:14:39;4.70;;;3.40;;
31910;SDS011;18457;52.432;16.914;2023-07-31T00:17:11;7.80;;;3.50;;
31910;SDS011;18457;52.432;16.914;2023-07-31T00:19:43;9.50;;;3.30;;
31910;SDS011;18457;52.432;16.914;2023-07-31T00:22:15;5.00;;;2.90;;
31910;SDS011;18457;52.432;16.914;2023-07-31T00:24:47;4.70;;;3.30;;
31910;SDS011;18457;52.432;16.914;2023-07-31T00:27:19;5.40;;;3.80;;
31910;SDS011;18457;52.432;16.914;2023-07-31T00:32:22;3.80;;;3.30;;
31910;SDS011;18457;52.432;16.914;2023-07-31T00:34:54;6.90;;;3.50;;
31910;SDS011;18457;52.432;16.914;2023-07-31T00:37:26;9.90;;;3.60;;
31910;SDS011;18457;52.432;16.914;2023-07-31T00:39:58;8.70;;;4.50;;
31910;SDS011;18457;52.432;16.914;2023-07-31T00:42:32;7.30;;;3.80;;
31910;SDS011;18457;52.432;16.914;2023-07-31T00:45:05;7.20;;;3.60;;
31910;SDS011;18457;52.432;16.914;2023-07-31T00:47:38;6.20;;;3.60;;
31910;SDS011;18457;52.432;16.914;2023-07-31T00:50:10;6.20;;;3.70;;
31910;SDS011;18457;52.432;16.914;2023-07-31T00:52:43;7.10;;;3.40;;
31910;SDS011;18457;52.432;16.914;2023-07-31T00:55:16;6.90;;;3.60;;
31910;SDS011;18457;52.432;16.914;2023-07-31T00:57:48;6.50;;;3.40;;
31910;SDS011;18457;52.432;16.914;2023-07-31T01:00:22;4.70;;;3.40;;
31910;SDS011;18457;52.432;16.914;2023-07-31T01:02:54;5.40;;;4.10;;
31910;SDS011;18457;52.432;16.914;2023-07-31T01:08:08;4.10;;;3.50;;
31910;SDS011;18457;52.432;16.914;2023-07-31T01:10:49;6.90;;;4.00;;
31910;SDS011;18457;52.432;16.914;2023-07-31T01:13:25;7.70;;;4.10;;
31910;SDS011;18457;52.432;16.914;2023-07-31T01:15:58;5.40;;;3.80;;
31910;SDS011;18457;52.432;16.914;2023-07-31T01:18:30;5.80;;;3.70;;
31910;SDS011;18457;52.432;16.914;2023-07-31T01:21:03;5.90;;;4.00;;
31910;SDS011;18457;52.432;16.914;2023-07-31T01:23:55;5.30;;;3.70;;
31910;SDS011;18457;52.432;16.914;2023-07-31T01:26:49;6.40;;;3.60;;
31910;SDS011;18457;52.432;16.914;2023-07-31T01:29:28;5.50;;;3.80;;
31910;SDS011;18457;52.432;16.914;2023-07-31T01:32:07;6.20;;;3.50;;
31910;SDS011;18457;52.432;16.914;2023-07-31T01:34:42;5.50;;;3.40;;
31910;SDS011;18457;52.432;16.914;2023-07-31T01:37:14;5.50;;;4.00;;
31910;SDS011;18457;52.432;16.914;2023-07-31T01:39:46;7.90;;;3.80;;
31910;SDS011;18457;52.432;16.914;2023-07-31T01:42:18;7.10;;;4.10;;
31910;SDS011;18457;52.432;16.914;2023-07-31T01:44:50;6.50;;;4.00;;
31910;SDS011;18457;52.432;16.914;2023-07-31T01:47:22;6.80;;;4.00;;
31910;SDS011;18457;52.432;16.914;2023-07-31T01:49:54;8.90;;;4.40;;
31910;SDS011;18457;52.432;16.914;2023-07-31T01:52:26;7.40;;;3.80;;
31910;SDS011;18457;52.432;16.914;2023-07-31T01:54:59;5.10;;;3.30;;
31910;SDS011;18457;52.432;16.914;2023-07-31T01:57:32;12.10;;;4.60;;
31910;SDS011;18457;52.432;16.914;2023-07-31T02:00:04;5.60;;;3.90;;
31910;SDS011;18457;52.432;16.914;2023-07-31T02:02:40;7.20;;;3.80;;
31910;SDS011;18457;52.432;16.914;2023-07-31T02:05:12;8.10;;;3.80;;
31910;SDS011;18457;52.432;16.914;2023-07-31T02:07:44;5.70;;;3.80;;
31910;SDS011;18457;52.432;16.914;2023-07-31T02:10:16;7.20;;;4.30;;
31910;SDS011;18457;52.432;16.914;2023-07-31T02:12:48;3.50;;;2.70;;
31910;SDS011;18457;52.432;16.914;2023-07-31T02:15:20;7.10;;;3.70;;
31910;SDS011;18457;52.432;16.914;2023-07-31T02:17:52;5.60;;;4.10;;
31910;SDS011;18457;52.432;16.914;2023-07-31T02:20:24;8.70;;;4.50;;
31910;SDS011;18457;52.432;16.914;2023-07-31T02:22:56;6.30;;;4.10;;
31910;SDS011;18457;52.432;16.914;2023-07-31T02:25:28;5.00;;;3.70;;
31910;SDS011;18457;52.432;16.914;2023-07-31T02:28:00;9.50;;;3.90;;
31910;SDS011;18457;52.432;16.914;2023-07-31T02:30:31;6.90;;;3.80;;
31910;SDS011;18457;52.432;16.914;2023-07-31T02:33:03;5.00;;;3.60;;
31910;SDS011;18457;52.432;16.914;2023-07-31T02:35:35;5.40;;;4.00;;
31910;SDS011;18457;52.432;16.914;2023-07-31T02:38:07;9.40;;;4.00;;
31910;SDS011;18457;52.432;16.914;2023-07-31T02:40:40;5.00;;;4.00;;
31910;SDS011;18457;52.432;16.914;2023-07-31T02:45:42;7.30;;;4.50;;
31910;SDS011;18457;52.432;16.914;2023-07-31T02:48:14;9.90;;;3.90;;
31910;SDS011;18457;52.432;16.914;2023-07-31T02:50:47;6.80;;;3.80;;
31910;SDS011;18457;52.432;16.914;2023-07-31T02:53:19;6.80;;;4.40;;
31910;SDS011;18457;52.432;16.914;2023-07-31T02:55:52;7.80;;;4.10;;
31910;SDS011;18457;52.432;16.914;2023-07-31T02:58:24;8.10;;;3.70;;
31910;SDS011;18457;52.432;16.914;2023-07-31T03:00:55;5.70;;;3.90;;
31910;SDS011;18457;52.432;16.914;2023-07-31T03:03:30;6.20;;;3.80;;
31910;SDS011;18457;52.432;16.914;2023-07-31T03:06:03;9.50;;;4.20;;
31910;SDS011;18457;52.432;16.914;2023-07-31T03:08:35;4.90;;;4.40;;
31910;SDS011;18457;52.432;16.914;2023-07-31T03:11:07;7.60;;;4.00;;
31910;SDS011;18457;52.432;16.914;2023-07-31T03:13:39;8.70;;;5.30;;
31910;SDS011;18457;52.432;16.914;2023-07-31T03:16:11;11.10;;;4.40;;
31910;SDS011;18457;52.432;16.914;2023-07-31T03:18:43;7.50;;;4.10;;
31910;SDS011;18457;52.432;16.914;2023-07-31T03:21:15;10.70;;;4.30;;
31910;SDS011;18457;52.432;16.914;2023-07-31T03:23:46;5.90;;;4.30;;
31910;SDS011;18457;52.432;16.914;2023-07-31T03:26:18;6.80;;;4.30;;
31910;SDS011;18457;52.432;16.914;2023-07-31T03:28:50;7.90;;;4.80;;
31910;SDS011;18457;52.432;16.914;2023-07-31T03:31:22;8.00;;;4.70;;
31910;SDS011;18457;52.432;16.914;2023-07-31T03:33:54;9.40;;;4.50;;
31910;SDS011;18457;52.432;16.914;2023-07-31T03:36:26;8.10;;;5.40;;
31910;SDS011;18457;52.432;16.914;2023-07-31T03:38:58;9.00;;;4.90;;
31910;SDS011;18457;52.432;16.914;2023-07-31T03:41:30;6.00;;;4.20;;
31910;SDS011;18457;52.432;16.914;2023-07-31T03:44:02;12.90;;;5.50;;
31910;SDS011;18457;52.432;16.914;2023-07-31T03:46:34;13.20;;;5.60;;
31910;SDS011;18457;52.432;16.914;2023-07-31T03:51:37;8.80;;;4.90;;
31910;SDS011;18457;52.432;16.914;2023-07-31T03:54:09;7.00;;;5.40;;
31910;SDS011;18457;52.432;16.914;2023-07-31T03:56:42;13.30;;;5.40;;
31910;SDS011;18457;52.432;16.914;2023-07-31T03:59:14;11.70;;;5.40;;
31910;SDS011;18457;52.432;16.914;2023-07-31T04:01:46;7.20;;;3.60;;
31910;SDS011;18457;52.432;16.914;2023-07-31T04:04:17;9.60;;;6.10;;
31910;SDS011;18457;52.432;16.914;2023-07-31T04:06:49;7.00;;;4.90;;
31910;SDS011;18457;52.432;16.914;2023-07-31T04:09:21;9.40;;;5.70;;
31910;SDS011;18457;52.432;16.914;2023-07-31T04:11:53;11.80;;;6.00;;
31910;SDS011;18457;52.432;16.914;2023-07-31T04:14:25;8.60;;;5.60;;
31910;SDS011;18457;52.432;16.914;2023-07-31T04:16:57;18.90;;;6.10;;
31910;SDS011;18457;52.432;16.914;2023-07-31T04:19:31;9.50;;;5.80;;
31910;SDS011;18457;52.432;16.914;2023-07-31T04:22:03;11.00;;;6.30;;
31910;SDS011;18457;52.432;16.914;2023-07-31T04:24:36;10.30;;;5.80;;
31910;SDS011;18457;52.432;16.914;2023-07-31T04:27:09;10.10;;;5.30;;
31910;SDS011;18457;52.432;16.914;2023-07-31T04:29:41;9.30;;;6.10;;
31910;SDS011;18457;52.432;16.914;2023-07-31T04:32:15;13.80;;;5.30;;
31910;SDS011;18457;52.432;16.914;2023-07-31T04:34:47;9.40;;;5.40;;
31910;SDS011;18457;52.432;16.914;2023-07-31T04:37:19;10.20;;;5.80;;
31910;SDS011;18457;52.432;16.914;2023-07-31T04:39:50;8.10;;;5.60;;
31910;SDS011;18457;52.432;16.914;2023-07-31T04:42:23;10.00;;;5.60;;
31910;SDS011;18457;52.432;16.914;2023-07-31T04:44:55;9.10;;;5.70;;
31910;SDS011;18457;52.432;16.914;2023-07-31T04:47:26;10.60;;;6.30;;
31910;SDS011;18457;52.432;16.914;2023-07-31T04:49:58;8.10;;;5.90;;
31910;SDS011;18457;52.432;16.914;2023-07-31T04:52:30;10.10;;;6.50;;
31910;SDS011;18457;52.432;16.914;2023-07-31T04:55:02;13.50;;;5.50;;
31910;SDS011;18457;52.432;16.914;2023-07-31T04:57:34;9.10;;;5.60;;
31910;SDS011;18457;52.432;16.914;2023-07-31T05:00:07;16.40;;;6.10;;
31910;SDS011;18457;52.432;16.914;2023-07-31T05:02:41;11.50;;;6.40;;
31910;SDS011;18457;52.432;16.914;2023-07-31T05:05:13;12.10;;;6.40;;
31910;SDS011;18457;52.432;16.914;2023-07-31T05:07:45;14.30;;;6.90;;
31910;SDS011;18457;52.432;16.914;2023-07-31T05:10:17;11.80;;;6.40;;
31910;SDS011;18457;52.432;16.914;2023-07-31T05:12:49;7.50;;;6.00;;
31910;SDS011;18457;52.432;16.914;2023-07-31T05:15:21;13.40;;;6.70;;
31910;SDS011;18457;52.432;16.914;2023-07-31T05:17:53;14.30;;;6.10;;
31910;SDS011;18457;52.432;16.914;2023-07-31T05:20:25;8.40;;;6.00;;
31910;SDS011;18457;52.432;16.914;2023-07-31T05:22:57;9.70;;;6.20;;
31910;SDS011;18457;52.432;16.914;2023-07-31T05:25:29;9.00;;;6.40;;
31910;SDS011;18457;52.432;16.914;2023-07-31T05:30:33;9.40;;;5.50;;
31910;SDS011;18457;52.432;16.914;2023-07-31T05:33:05;9.70;;;6.20;;
31910;SDS011;18457;52.432;16.914;2023-07-31T05:35:37;15.20;;;6.20;;
31910;SDS011;18457;52.432;16.914;2023-07-31T05:38:09;9.20;;;6.10;;
31910;SDS011;18457;52.432;16.914;2023-07-31T05:40:41;9.60;;;6.30;;
31910;SDS011;18457;52.432;16.914;2023-07-31T05:43:14;9.00;;;5.50;;
31910;SDS011;18457;52.432;16.914;2023-07-31T05:45:45;10.00;;;6.00;;
31910;SDS011;18457;52.432;16.914;2023-07-31T05:48:17;9.70;;;6.30;;
31910;SDS011;18457;52.432;16.914;2023-07-31T05:50:49;11.70;;;6.00;;
31910;SDS011;18457;52.432;16.914;2023-07-31T05:53:21;9.20;;;5.80;;
31910;SDS011;18457;52.432;16.914;2023-07-31T05:55:53;9.90;;;5.70;;
31910;SDS011;18457;52.432;16.914;2023-07-31T05:58:25;9.00;;;5.90;;
31910;SDS011;18457;52.432;16.914;2023-07-31T06:00:57;11.60;;;5.80;;
31910;SDS011;18457;52.432;16.914;2023-07-31T06:03:32;10.40;;;6.80;;
31910;SDS011;18457;52.432;16.914;2023-07-31T06:06:04;6.70;;;5.50;;
31910;SDS011;18457;52.432;16.914;2023-07-31T06:08:36;10.80;;;5.70;;
31910;SDS011;18457;52.432;16.914;2023-07-31T06:11:09;7.60;;;5.70;;
31910;SDS011;18457;52.432;16.914;2023-07-31T06:13:40;9.50;;;5.80;;
31910;SDS011;18457;52.432;16.914;2023-07-31T06:16:13;16.90;;;5.90;;
31910;SDS011;18457;52.432;16.914;2023-07-31T06:18:46;10.70;;;6.00;;
31910;SDS011;18457;52.432;16.914;2023-07-31T06:21:18;11.90;;;5.70;;
31910;SDS011;18457;52.432;16.914;2023-07-31T06:23:50;14.60;;;5.70;;
31910;SDS011;18457;52.432;16.914;2023-07-31T06:26:22;14.60;;;6.00;;
31910;SDS011;18457;52.432;16.914;2023-07-31T06:28:54;9.70;;;6.00;;
31910;SDS011;18457;52.432;16.914;2023-07-31T06:31:26;13.60;;;5.20;;
31910;SDS011;18457;52.432;16.914;2023-07-31T06:33:58;11.50;;;5.90;;
31910;SDS011;18457;52.432;16.914;2023-07-31T06:36:30;9.00;;;4.80;;
31910;SDS011;18457;52.432;16.914;2023-07-31T06:39:02;10.60;;;5.70;;
31910;SDS011;18457;52.432;16.914;2023-07-31T06:41:34;7.50;;;5.00;;
31910;SDS011;18457;52.432;16.914;2023-07-31T06:44:07;9.10;;;4.80;;
31910;SDS011;18457;52.432;16.914;2023-07-31T06:46:40;10.00;;;5.60;;
31910;SDS011;18457;52.432;16.914;2023-07-31T06:51:46;10.00;;;5.20;;
31910;SDS011;18457;52.432;16.914;2023-07-31T06:54:18;15.30;;;5.20;;
31910;SDS011;18457;52.432;16.914;2023-07-31T06:56:50;7.00;;;4.90;;
31910;SDS011;18457;52.432;16.914;2023-07-31T06:59:22;9.70;;;5.40;;
31910;SDS011;18457;52.432;16.914;2023-07-31T07:01:54;12.40;;;5.80;;
31910;SDS011;18457;52.432;16.914;2023-07-31T07:04:26;8.20;;;4.90;;
31910;SDS011;18457;52.432;16.914;2023-07-31T07:06:58;12.20;;;5.60;;
31910;SDS011;18457;52.432;16.914;2023-07-31T07:09:30;8.10;;;4.60;;
31910;SDS011;18457;52.432;16.914;2023-07-31T07:12:02;8.70;;;5.10;;
31910;SDS011;18457;52.432;16.914;2023-07-31T07:14:34;14.80;;;5.20;;
31910;SDS011;18457;52.432;16.914;2023-07-31T07:17:06;6.20;;;4.50;;
31910;SDS011;18457;52.432;16.914;2023-07-31T07:19:39;9.90;;;4.70;;
31910;SDS011;18457;52.432;16.914;2023-07-31T07:22:11;6.70;;;4.10;;
31910;SDS011;18457;52.432;16.914;2023-07-31T07:24:43;6.10;;;4.20;;
31910;SDS011;18457;52.432;16.914;2023-07-31T07:27:15;9.30;;;4.90;;
31910;SDS011;18457;52.432;16.914;2023-07-31T07:29:47;13.10;;;4.30;;
31910;SDS011;18457;52.432;16.914;2023-07-31T07:32:22;14.10;;;4.80;;
31910;SDS011;18457;52.432;16.914;2023-07-31T07:34:54;8.30;;;4.40;;
31910;SDS011;18457;52.432;16.914;2023-07-31T07:39:57;8.20;;;4.50;;
31910;SDS011;18457;52.432;16.914;2023-07-31T07:42:29;10.00;;;4.00;;
31910;SDS011;18457;52.432;16.914;2023-07-31T07:45:01;6.80;;;4.00;;
31910;SDS011;18457;52.432;16.914;2023-07-31T07:47:34;7.70;;;4.00;;
31910;SDS011;18457;52.432;16.914;2023-07-31T07:50:07;7.70;;;3.90;;
31910;SDS011;18457;52.432;16.914;2023-07-31T07:52:40;7.50;;;4.20;;
31910;SDS011;18457;52.432;16.914;2023-07-31T07:55:12;7.90;;;4.80;;
31910;SDS011;18457;52.432;16.914;2023-07-31T07:57:44;7.10;;;3.80;;
31910;SDS011;18457;52.432;16.914;2023-07-31T08:00:16;5.70;;;3.80;;
31910;SDS011;18457;52.432;16.914;2023-07-31T08:02:48;6.80;;;4.20;;
31910;SDS011;18457;52.432;16.914;2023-07-31T08:05:21;6.40;;;3.60;;
31910;SDS011;18457;52.432;16.914;2023-07-31T08:07:53;6.80;;;3.60;;
31910;SDS011;18457;52.432;16.914;2023-07-31T08:10:25;7.00;;;3.90;;
31910;SDS011;18457;52.432;16.914;2023-07-31T08:12:57;6.50;;;4.10;;
31910;SDS011;18457;52.432;16.914;2023-07-31T08:15:28;9.50;;;4.10;;
31910;SDS011;18457;52.432;16.914;2023-07-31T08:18:00;8.70;;;4.00;;
31910;SDS011;18457;52.432;16.914;2023-07-31T08:20:32;13.90;;;4.30;;
31910;SDS011;18457;52.432;16.914;2023-07-31T08:23:04;8.30;;;4.50;;
31910;SDS011;18457;52.432;16.914;2023-07-31T08:25:36;8.10;;;3.90;;
31910;SDS011;18457;52.432;16.914;2023-07-31T08:28:08;5.30;;;3.60;;
31910;SDS011;18457;52.432;16.914;2023-07-31T08:30:41;5.10;;;3.40;;
31910;SDS011;18457;52.432;16.914;2023-07-31T08:35:44;6.20;;;3.50;;
31910;SDS011;18457;52.432;16.914;2023-07-31T08:38:16;8.60;;;4.20;;
31910;SDS011;18457;52.432;16.914;2023-07-31T08:40:48;9.30;;;3.50;;
31910;SDS011;18457;52.432;16.914;2023-07-31T08:43:21;7.40;;;3.60;;
31910;SDS011;18457;52.432;16.914;2023-07-31T08:45:55;7.80;;;3.70;;
31910;SDS011;18457;52.432;16.914;2023-07-31T08:48:27;12.20;;;4.40;;
31910;SDS011;18457;52.432;16.914;2023-07-31T08:51:01;8.00;;;4.00;;
31910;SDS011;18457;52.432;16.914;2023-07-31T08:53:33;9.10;;;4.00;;
31910;SDS011;18457;52.432;16.914;2023-07-31T08:56:06;7.70;;;4.00;;
31910;SDS011;18457;52.432;16.914;2023-07-31T08:58:39;9.20;;;3.90;;
31910;SDS011;18457;52.432;16.914;2023-07-31T09:01:12;6.90;;;4.20;;
31910;SDS011;18457;52.432;16.914;2023-07-31T09:03:45;11.20;;;4.00;;
31910;SDS011;18457;52.432;16.914;2023-07-31T09:06:18;5.60;;;3.70;;
31910;SDS011;18457;52.432;16.914;2023-07-31T09:08:51;13.60;;;4.00;;
31910;SDS011;18457;52.432;16.914;2023-07-31T09:11:24;6.50;;;4.00;;
31910;SDS011;18457;52.432;16.914;2023-07-31T09:13:57;8.50;;;3.40;;
31910;SDS011;18457;52.432;16.914;2023-07-31T09:16:37;7.80;;;3.40;;
31910;SDS011;18457;52.432;16.914;2023-07-31T09:19:26;5.60;;;3.60;;
31910;SDS011;18457;52.432;16.914;2023-07-31T09:22:00;6.80;;;3.80;;
31910;SDS011;18457;52.432;16.914;2023-07-31T09:24:32;8.10;;;3.20;;
31910;SDS011;18457;52.432;16.914;2023-07-31T09:27:05;6.60;;;3.80;;
31910;SDS011;18457;52.432;16.914;2023-07-31T09:29:37;7.70;;;3.80;;
31910;SDS011;18457;52.432;16.914;2023-07-31T09:32:13;7.40;;;4.20;;
31910;SDS011;18457;52.432;16.914;2023-07-31T09:34:47;5.30;;;3.50;;
31910;SDS011;18457;52.432;16.914;2023-07-31T09:37:19;9.10;;;3.60;;
31910;SDS011;18457;52.432;16.914;2023-07-31T09:39:51;5.10;;;3.70;;
31910;SDS011;18457;52.432;16.914;2023-07-31T09:42:27;11.30;;;5.10;;
31910;SDS011;18457;52.432;16.914;2023-07-31T09:45:07;5.70;;;3.40;;
31910;SDS011;18457;52.432;16.914;2023-07-31T09:47:48;5.00;;;3.90;;
31910;SDS011;18457;52.432;16.914;2023-07-31T09:50:21;10.60;;;4.60;;
31910;SDS011;18457;52.432;16.914;2023-07-31T09:52:54;10.40;;;3.90;;
31910;SDS011;18457;52.432;16.914;2023-07-31T09:55:26;7.40;;;4.40;;
31910;SDS011;18457;52.432;16.914;2023-07-31T09:58:01;5.40;;;3.90;;
31910;SDS011;18457;52.432;16.914;2023-07-31T10:00:35;6.40;;;3.80;;
31910;SDS011;18457;52.432;16.914;2023-07-31T10:03:09;7.20;;;4.20;;
31910;SDS011;18457;52.432;16.914;2023-07-31T10:08:18;5.80;;;4.10;;
31910;SDS011;18457;52.432;16.914;2023-07-31T10:10:53;14.80;;;4.80;;
31910;SDS011;18457;52.432;16.914;2023-07-31T10:13:28;7.50;;;4.20;;
31910;SDS011;18457;52.432;16.914;2023-07-31T10:16:00;8.10;;;4.40;;
31910;SDS011;18457;52.432;16.914;2023-07-31T10:21:06;10.00;;;4.30;;
31910;SDS011;18457;52.432;16.914;2023-07-31T10:23:38;4.80;;;3.90;;
31910;SDS011;18457;52.432;16.914;2023-07-31T10:26:11;7.60;;;4.20;;
31910;SDS011;18457;52.432;16.914;2023-07-31T10:28:47;11.40;;;4.60;;
31910;SDS011;18457;52.432;16.914;2023-07-31T10:31:20;9.90;;;4.50;;
31910;SDS011;18457;52.432;16.914;2023-07-31T10:33:53;7.80;;;3.70;;
31910;SDS011;18457;52.432;16.914;2023-07-31T10:36:27;9.50;;;4.40;;
31910;SDS011;18457;52.432;16.914;2023-07-31T10:38:59;7.00;;;5.10;;
31910;SDS011;18457;52.432;16.914;2023-07-31T10:41:55;8.10;;;4.20;;
31910;SDS011;18457;52.432;16.914;2023-07-31T10:44:27;6.50;;;4.40;;
31910;SDS011;18457;52.432;16.914;2023-07-31T10:46:59;12.40;;;4.30;;
31910;SDS011;18457;52.432;16.914;2023-07-31T10:49:32;8.40;;;4.20;;
31910;SDS011;18457;52.432;16.914;2023-07-31T10:52:04;13.50;;;5.00;;
31910;SDS011;18457;52.432;16.914;2023-07-31T10:54:40;7.00;;;4.80;;
31910;SDS011;18457;52.432;16.914;2023-07-31T10:57:22;8.60;;;4.30;;
31910;SDS011;18457;52.432;16.914;2023-07-31T10:59:54;12.20;;;4.40;;
31910;SDS011;18457;52.432;16.914;2023-07-31T11:03:00;10.80;;;4.80;;
31910;SDS011;18457;52.432;16.914;2023-07-31T11:05:44;7.60;;;4.60;;
31910;SDS011;18457;52.432;16.914;2023-07-31T11:08:19;9.70;;;5.30;;
31910;SDS011;18457;52.432;16.914;2023-07-31T11:11:05;6.70;;;4.50;;
31910;SDS011;18457;52.432;16.914;2023-07-31T11:13:42;7.60;;;4.20;;
31910;SDS011;18457;52.432;16.914;2023-07-31T11:16:18;6.70;;;4.70;;
31910;SDS011;18457;52.432;16.914;2023-07-31T11:18:52;7.20;;;4.20;;
31910;SDS011;18457;52.432;16.914;2023-07-31T11:21:25;7.70;;;4.20;;
31910;SDS011;18457;52.432;16.914;2023-07-31T11:23:58;5.30;;;4.70;;
31910;SDS011;18457;52.432;16.914;2023-07-31T11:29:01;4.60;;;3.60;;
31910;SDS011;18457;52.432;16.914;2023-07-31T11:31:43;6.60;;;3.90;;
31910;SDS011;18457;52.432;16.914;2023-07-31T11:34:17;4.70;;;3.80;;
31910;SDS011;18457;52.432;16.914;2023-07-31T11:36:56;5.50;;;3.70;;
31910;SDS011;18457;52.432;16.914;2023-07-31T11:39:28;4.30;;;3.90;;
31910;SDS011;18457;52.432;16.914;2023-07-31T11:42:01;7.60;;;4.10;;
31910;SDS011;18457;52.432;16.914;2023-07-31T11:44:39;4.50;;;3.50;;
31910;SDS011;18457;52.432;16.914;2023-07-31T11:47:17;4.60;;;3.40;;
31910;SDS011;18457;52.432;16.914;2023-07-31T11:49:50;4.40;;;3.20;;
31910;SDS011;18457;52.432;16.914;2023-07-31T11:52:22;3.70;;;3.30;;
31910;SDS011;18457;52.432;16.914;2023-07-31T11:54:55;4.50;;;3.00;;
31910;SDS011;18457;52.432;16.914;2023-07-31T11:57:28;3.40;;;3.00;;
31910;SDS011;18457;52.432;16.914;2023-07-31T12:00:00;4.50;;;3.60;;
31910;SDS011;18457;52.432;16.914;2023-07-31T12:02:35;5.20;;;3.80;;
31910;SDS011;18457;52.432;16.914;2023-07-31T12:05:11;7.70;;;4.40;;
31910;SDS011;18457;52.432;16.914;2023-07-31T12:07:44;6.10;;;4.30;;
31910;SDS011;18457;52.432;16.914;2023-07-31T12:10:28;7.30;;;4.50;;
31910;SDS011;18457;52.432;16.914;2023-07-31T12:13:03;6.60;;;4.80;;
31910;SDS011;18457;52.432;16.914;2023-07-31T12:15:41;6.10;;;4.70;;
31910;SDS011;18457;52.432;16.914;2023-07-31T12:18:14;8.10;;;4.90;;
31910;SDS011;18457;52.432;16.914;2023-07-31T12:20:54;6.90;;;4.50;;
31910;SDS011;18457;52.432;16.914;2023-07-31T12:23:27;7.60;;;4.40;;
31910;SDS011;18457;52.432;16.914;2023-07-31T12:26:04;6.60;;;4.60;;
31910;SDS011;18457;52.432;16.914;2023-07-31T12:28:39;6.10;;;4.80;;
31910;SDS011;18457;52.432;16.914;2023-07-31T12:31:13;6.40;;;4.80;;
31910;SDS011;18457;52.432;16.914;2023-07-31T12:33:48;6.40;;;4.60;;
31910;SDS011;18457;52.432;16.914;2023-07-31T12:36:21;9.10;;;4.90;;
31910;SDS011;18457;52.432;16.914;2023-07-31T12:38:54;8.40;;;5.20;;
31910;SDS011;18457;52.432;16.914;2023-07-31T12:41:28;13.30;;;6.10;;
31910;SDS011;18457;52.432;16.914;2023-07-31T12:44:00;5.60;;;4.20;;
31910;SDS011;18457;52.432;16.914;2023-07-31T12:46:35;8.70;;;5.00;;
31910;SDS011;18457;52.432;16.914;2023-07-31T12:49:08;6.30;;;4.60;;
31910;SDS011;18457;52.432;16.914;2023-07-31T12:51:40;7.90;;;4.40;;
31910;SDS011;18457;52.432;16.914;2023-07-31T12:54:12;6.00;;;4.80;;
31910;SDS011;18457;52.432;16.914;2023-07-31T12:56:44;7.40;;;4.50;;
31910;SDS011;18457;52.432;16.914;2023-07-31T12:59:16;7.20;;;4.30;;
31910;SDS011;18457;52.432;16.914;2023-07-31T13:01:49;7.80;;;4.80;;
31910;SDS011;18457;52.432;16.914;2023-07-31T13:04:21;6.00;;;4.40;;
31910;SDS011;18457;52.432;16.914;2023-07-31T13:06:53;7.60;;;4.80;;
31910;SDS011;18457;52.432;16.914;2023-07-31T13:09:28;7.40;;;4.80;;
31910;SDS011;18457;52.432;16.914;2023-07-31T13:12:00;7.00;;;5.60;;
31910;SDS011;18457;52.432;16.914;2023-07-31T13:14:32;8.20;;;5.10;;
31910;SDS011;18457;52.432;16.914;2023-07-31T13:17:05;9.00;;;5.00;;
31910;SDS011;18457;52.432;16.914;2023-07-31T13:19:37;8.80;;;4.60;;
31910;SDS011;18457;52.432;16.914;2023-07-31T13:22:10;9.10;;;4.50;;
31910;SDS011;18457;52.432;16.914;2023-07-31T13:24:42;9.00;;;5.40;;
31910;SDS011;18457;52.432;16.914;2023-07-31T13:27:14;12.00;;;5.60;;
31910;SDS011;18457;52.432;16.914;2023-07-31T13:29:48;11.90;;;5.40;;
31910;SDS011;18457;52.432;16.914;2023-07-31T13:32:20;10.40;;;5.40;;
31910;SDS011;18457;52.432;16.914;2023-07-31T13:34:53;7.70;;;5.40;;
31910;SDS011;18457;52.432;16.914;2023-07-31T13:37:25;10.70;;;5.40;;
31910;SDS011;18457;52.432;16.914;2023-07-31T13:39:56;10.80;;;5.00;;
31910;SDS011;18457;52.432;16.914;2023-07-31T13:42:28;8.60;;;4.80;;
31910;SDS011;18457;52.432;16.914;2023-07-31T13:45:00;11.40;;;5.60;;
31910;SDS011;18457;52.432;16.914;2023-07-31T13:47:36;14.90;;;4.60;;
31910;SDS011;18457;52.432;16.914;2023-07-31T13:50:08;6.20;;;4.30;;
31910;SDS011;18457;52.432;16.914;2023-07-31T13:52:40;7.60;;;4.50;;
31910;SDS011;18457;52.432;16.914;2023-07-31T13:55:13;7.10;;;4.80;;
31910;SDS011;18457;52.432;16.914;2023-07-31T13:57:45;10.40;;;4.60;;
31910;SDS011;18457;52.432;16.914;2023-07-31T14:00:17;7.30;;;4.10;;
31910;SDS011;18457;52.432;16.914;2023-07-31T14:02:52;5.70;;;4.30;;
31910;SDS011;18457;52.432;16.914;2023-07-31T14:05:24;7.50;;;4.70;;
31910;SDS011;18457;52.432;16.914;2023-07-31T14:07:56;12.30;;;5.30;;
31910;SDS011;18457;52.432;16.914;2023-07-31T14:10:28;6.60;;;5.50;;
31910;SDS011;18457;52.432;16.914;2023-07-31T14:13:00;7.10;;;3.90;;
31910;SDS011;18457;52.432;16.914;2023-07-31T14:15:32;7.10;;;4.40;;
31910;SDS011;18457;52.432;16.914;2023-07-31T14:18:05;7.50;;;4.70;;
31910;SDS011;18457;52.432;16.914;2023-07-31T14:20:42;6.70;;;4.50;;
31910;SDS011;18457;52.432;16.914;2023-07-31T14:23:21;6.70;;;4.80;;
31910;SDS011;18457;52.432;16.914;2023-07-31T14:25:53;11.20;;;4.40;;
31910;SDS011;18457;52.432;16.914;2023-07-31T14:28:29;5.40;;;4.10;;
31910;SDS011;18457;52.432;16.914;2023-07-31T14:31:01;4.70;;;3.90;;
31910;SDS011;18457;52.432;16.914;2023-07-31T14:33:33;6.60;;;3.90;;
31910;SDS011;18457;52.432;16.914;2023-07-31T14:36:05;8.40;;;4.30;;
31910;SDS011;18457;52.432;16.914;2023-07-31T14:38:37;11.00;;;4.30;;
31910;SDS011;18457;52.432;16.914;2023-07-31T14:41:09;9.40;;;4.70;;
31910;SDS011;18457;52.432;16.914;2023-07-31T14:43:42;6.70;;;4.10;;
31910;SDS011;18457;52.432;16.914;2023-07-31T14:46:14;7.30;;;3.60;;
31910;SDS011;18457;52.432;16.914;2023-07-31T14:48:46;7.40;;;4.60;;
31910;SDS011;18457;52.432;16.914;2023-07-31T14:51:18;6.50;;;3.90;;
31910;SDS011;18457;52.432;16.914;2023-07-31T14:53:50;9.40;;;3.80;;
31910;SDS011;18457;52.432;16.914;2023-07-31T14:56:22;7.70;;;3.90;;
31910;SDS011;18457;52.432;16.914;2023-07-31T14:58:56;9.10;;;4.30;;
31910;SDS011;18457;52.432;16.914;2023-07-31T15:01:27;6.60;;;4.10;;
31910;SDS011;18457;52.432;16.914;2023-07-31T15:04:00;8.80;;;4.30;;
31910;SDS011;18457;52.432;16.914;2023-07-31T15:06:32;6.90;;;3.60;;
31910;SDS011;18457;52.432;16.914;2023-07-31T15:09:04;9.70;;;4.00;;
31910;SDS011;18457;52.432;16.914;2023-07-31T15:11:36;4.70;;;3.90;;
31910;SDS011;18457;52.432;16.914;2023-07-31T15:14:08;5.50;;;4.10;;
31910;SDS011;18457;52.432;16.914;2023-07-31T15:16:44;5.80;;;4.50;;
31910;SDS011;18457;52.432;16.914;2023-07-31T15:19:16;8.30;;;4.10;;
31910;SDS011;18457;52.432;16.914;2023-07-31T15:21:48;6.10;;;4.00;;
31910;SDS011;18457;52.432;16.914;2023-07-31T15:24:20;5.70;;;3.30;;
31910;SDS011;18457;52.432;16.914;2023-07-31T15:26:52;5.50;;;3.70;;
31910;SDS011;18457;52.432;16.914;2023-07-31T15:29:24;8.90;;;3.90;;
31910;SDS011;18457;52.432;16.914;2023-07-31T15:31:56;6.70;;;3.80;;
31910;SDS011;18457;52.432;16.914;2023-07-31T15:34:29;7.20;;;4.00;;